Mount Lemmon, Arizona
Current Conditions -  °F | °C
As of 7:58 PM on Friday 24 Oct 2014 (Local Time) from KDMA Reporting Station
Haze Haze  
Wind Chill: 79°   Ceiling: Unl
Heat Index: 79°   Visibility: 3mi
Dew Point: 46°   Wind: 6mph
Humidity: 32%   Direction: 280°W
Pressure: 30.07"   Gusts: NA
Location:  32.45°N, 110.74°W
Report Text: KDMA 250258Z AUTO 28005KT 3SM R12/4000FT HZ CLR 26/08 A3007 RMK AO2 SLP146 T02590078 52014 $
Loading
Personal Weather Stations






























Interactive Weather Map
Tropical Storm Tracking
New forecast layout! Learn more

10-Day Weather Forecast

Advertisements
Track Severe Weather on mobile